sensor_id;sensor_type;location;lat;lon;timestamp;P1;durP1;ratioP1;P2;durP2;ratioP2
32535;SDS011;18974;50.838;4.636;2024-02-16T00:01:59;5.30;;;2.10;;
32535;SDS011;18974;50.838;4.636;2024-02-16T00:04:26;3.72;;;2.00;;
32535;SDS011;18974;50.838;4.636;2024-02-16T00:06:52;5.50;;;2.55;;
32535;SDS011;18974;50.838;4.636;2024-02-16T00:09:18;8.35;;;2.67;;
32535;SDS011;18974;50.838;4.636;2024-02-16T00:11:43;4.53;;;2.50;;
32535;SDS011;18974;50.838;4.636;2024-02-16T00:14:10;4.88;;;2.25;;
32535;SDS011;18974;50.838;4.636;2024-02-16T00:16:35;7.50;;;2.30;;
32535;SDS011;18974;50.838;4.636;2024-02-16T00:19:01;7.00;;;2.60;;
32535;SDS011;18974;50.838;4.636;2024-02-16T00:21:27;7.88;;;2.42;;
32535;SDS011;18974;50.838;4.636;2024-02-16T00:23:54;5.53;;;2.30;;
32535;SDS011;18974;50.838;4.636;2024-02-16T00:26:20;5.05;;;2.10;;
32535;SDS011;18974;50.838;4.636;2024-02-16T00:28:46;5.47;;;2.15;;
32535;SDS011;18974;50.838;4.636;2024-02-16T00:31:12;4.57;;;2.47;;
32535;SDS011;18974;50.838;4.636;2024-02-16T00:33:37;3.55;;;2.20;;
32535;SDS011;18974;50.838;4.636;2024-02-16T00:36:03;6.30;;;2.47;;
32535;SDS011;18974;50.838;4.636;2024-02-16T00:38:29;6.55;;;2.35;;
32535;SDS011;18974;50.838;4.636;2024-02-16T00:40:54;10.50;;;3.20;;
32535;SDS011;18974;50.838;4.636;2024-02-16T00:43:20;4.82;;;2.58;;
32535;SDS011;18974;50.838;4.636;2024-02-16T00:45:46;7.13;;;2.60;;
32535;SDS011;18974;50.838;4.636;2024-02-16T00:48:13;6.80;;;2.65;;
32535;SDS011;18974;50.838;4.636;2024-02-16T00:50:39;6.07;;;2.67;;
32535;SDS011;18974;50.838;4.636;2024-02-16T00:53:04;5.20;;;2.40;;
32535;SDS011;18974;50.838;4.636;2024-02-16T00:55:30;7.28;;;2.55;;
32535;SDS011;18974;50.838;4.636;2024-02-16T00:57:56;7.30;;;3.25;;
32535;SDS011;18974;50.838;4.636;2024-02-16T01:00:22;5.43;;;2.60;;
32535;SDS011;18974;50.838;4.636;2024-02-16T01:02:51;9.52;;;2.95;;
32535;SDS011;18974;50.838;4.636;2024-02-16T01:05:17;5.40;;;2.60;;
32535;SDS011;18974;50.838;4.636;2024-02-16T01:07:43;3.95;;;2.83;;
32535;SDS011;18974;50.838;4.636;2024-02-16T01:10:10;7.68;;;2.72;;
32535;SDS011;18974;50.838;4.636;2024-02-16T01:12:37;5.88;;;2.85;;
32535;SDS011;18974;50.838;4.636;2024-02-16T01:15:03;9.00;;;2.63;;
32535;SDS011;18974;50.838;4.636;2024-02-16T01:17:29;6.82;;;2.65;;
32535;SDS011;18974;50.838;4.636;2024-02-16T01:19:55;4.47;;;2.63;;
32535;SDS011;18974;50.838;4.636;2024-02-16T01:22:21;3.90;;;2.70;;
32535;SDS011;18974;50.838;4.636;2024-02-16T01:24:47;6.65;;;2.95;;
32535;SDS011;18974;50.838;4.636;2024-02-16T01:27:14;8.73;;;3.13;;
32535;SDS011;18974;50.838;4.636;2024-02-16T01:29:41;5.13;;;2.67;;
32535;SDS011;18974;50.838;4.636;2024-02-16T01:32:06;11.75;;;2.92;;
32535;SDS011;18974;50.838;4.636;2024-02-16T01:34:32;5.13;;;2.65;;
32535;SDS011;18974;50.838;4.636;2024-02-16T01:36:58;7.18;;;2.55;;
32535;SDS011;18974;50.838;4.636;2024-02-16T01:39:24;5.30;;;2.78;;
32535;SDS011;18974;50.838;4.636;2024-02-16T01:41:50;6.85;;;3.05;;
32535;SDS011;18974;50.838;4.636;2024-02-16T01:44:15;4.35;;;2.50;;
32535;SDS011;18974;50.838;4.636;2024-02-16T01:46:42;4.35;;;2.45;;
32535;SDS011;18974;50.838;4.636;2024-02-16T01:49:08;6.15;;;2.92;;
32535;SDS011;18974;50.838;4.636;2024-02-16T01:51:35;7.05;;;2.47;;
32535;SDS011;18974;50.838;4.636;2024-02-16T01:54:02;5.47;;;2.47;;
32535;SDS011;18974;50.838;4.636;2024-02-16T01:56:28;5.43;;;2.67;;
32535;SDS011;18974;50.838;4.636;2024-02-16T01:58:54;4.88;;;2.50;;
32535;SDS011;18974;50.838;4.636;2024-02-16T02:01:20;5.43;;;2.60;;
32535;SDS011;18974;50.838;4.636;2024-02-16T02:03:45;5.90;;;2.28;;
32535;SDS011;18974;50.838;4.636;2024-02-16T02:06:11;3.95;;;2.45;;
32535;SDS011;18974;50.838;4.636;2024-02-16T02:08:37;6.65;;;2.30;;
32535;SDS011;18974;50.838;4.636;2024-02-16T02:11:02;6.35;;;2.80;;
32535;SDS011;18974;50.838;4.636;2024-02-16T02:13:28;8.73;;;2.97;;
32535;SDS011;18974;50.838;4.636;2024-02-16T02:15:55;6.82;;;2.40;;
32535;SDS011;18974;50.838;4.636;2024-02-16T02:18:23;5.38;;;2.20;;
32535;SDS011;18974;50.838;4.636;2024-02-16T02:20:49;5.10;;;2.40;;
32535;SDS011;18974;50.838;4.636;2024-02-16T02:23:15;5.30;;;2.38;;
32535;SDS011;18974;50.838;4.636;2024-02-16T02:25:41;11.40;;;2.80;;
32535;SDS011;18974;50.838;4.636;2024-02-16T02:28:06;5.72;;;2.50;;
32535;SDS011;18974;50.838;4.636;2024-02-16T02:30:33;6.90;;;2.85;;
32535;SDS011;18974;50.838;4.636;2024-02-16T02:32:59;6.30;;;2.50;;
32535;SDS011;18974;50.838;4.636;2024-02-16T02:35:24;7.75;;;2.75;;
32535;SDS011;18974;50.838;4.636;2024-02-16T02:37:50;6.13;;;2.60;;
32535;SDS011;18974;50.838;4.636;2024-02-16T02:40:16;5.70;;;2.70;;
32535;SDS011;18974;50.838;4.636;2024-02-16T02:42:41;5.75;;;2.50;;
32535;SDS011;18974;50.838;4.636;2024-02-16T02:45:08;9.10;;;2.47;;
32535;SDS011;18974;50.838;4.636;2024-02-16T02:47:34;5.50;;;2.85;;
32535;SDS011;18974;50.838;4.636;2024-02-16T02:49:59;3.90;;;2.38;;
32535;SDS011;18974;50.838;4.636;2024-02-16T02:52:25;7.50;;;2.75;;
32535;SDS011;18974;50.838;4.636;2024-02-16T02:54:51;8.07;;;2.65;;
32535;SDS011;18974;50.838;4.636;2024-02-16T02:57:17;6.78;;;2.70;;
32535;SDS011;18974;50.838;4.636;2024-02-16T02:59:42;6.45;;;2.70;;
32535;SDS011;18974;50.838;4.636;2024-02-16T03:02:10;7.75;;;2.80;;
32535;SDS011;18974;50.838;4.636;2024-02-16T03:04:36;5.22;;;2.38;;
32535;SDS011;18974;50.838;4.636;2024-02-16T03:07:01;5.35;;;3.10;;
32535;SDS011;18974;50.838;4.636;2024-02-16T03:09:27;7.63;;;2.92;;
32535;SDS011;18974;50.838;4.636;2024-02-16T03:11:53;6.22;;;2.28;;
32535;SDS011;18974;50.838;4.636;2024-02-16T03:14:19;8.40;;;2.92;;
32535;SDS011;18974;50.838;4.636;2024-02-16T03:16:44;7.72;;;2.78;;
32535;SDS011;18974;50.838;4.636;2024-02-16T03:19:10;6.72;;;2.50;;
32535;SDS011;18974;50.838;4.636;2024-02-16T03:21:36;6.68;;;2.88;;
32535;SDS011;18974;50.838;4.636;2024-02-16T03:24:02;9.82;;;2.67;;
32535;SDS011;18974;50.838;4.636;2024-02-16T03:26:29;8.40;;;3.28;;
32535;SDS011;18974;50.838;4.636;2024-02-16T03:28:54;5.63;;;2.80;;
32535;SDS011;18974;50.838;4.636;2024-02-16T03:31:22;8.60;;;2.92;;
32535;SDS011;18974;50.838;4.636;2024-02-16T03:33:49;7.63;;;2.90;;
32535;SDS011;18974;50.838;4.636;2024-02-16T03:36:16;9.25;;;2.70;;
32535;SDS011;18974;50.838;4.636;2024-02-16T03:38:45;7.68;;;3.10;;
32535;SDS011;18974;50.838;4.636;2024-02-16T03:41:17;10.25;;;2.97;;
32535;SDS011;18974;50.838;4.636;2024-02-16T03:43:44;7.35;;;2.45;;
32535;SDS011;18974;50.838;4.636;2024-02-16T03:46:10;6.15;;;3.13;;
32535;SDS011;18974;50.838;4.636;2024-02-16T03:48:36;8.05;;;2.85;;
32535;SDS011;18974;50.838;4.636;2024-02-16T03:51:01;7.07;;;3.03;;
32535;SDS011;18974;50.838;4.636;2024-02-16T03:53:30;6.47;;;3.00;;
32535;SDS011;18974;50.838;4.636;2024-02-16T03:55:55;6.63;;;2.50;;
32535;SDS011;18974;50.838;4.636;2024-02-16T03:58:21;10.30;;;2.85;;
32535;SDS011;18974;50.838;4.636;2024-02-16T04:00:47;5.65;;;3.00;;
32535;SDS011;18974;50.838;4.636;2024-02-16T04:03:17;8.77;;;3.40;;
32535;SDS011;18974;50.838;4.636;2024-02-16T04:05:43;6.75;;;3.55;;
32535;SDS011;18974;50.838;4.636;2024-02-16T04:08:09;8.02;;;2.80;;
32535;SDS011;18974;50.838;4.636;2024-02-16T04:10:35;7.13;;;2.95;;
32535;SDS011;18974;50.838;4.636;2024-02-16T04:13:01;8.05;;;2.92;;
32535;SDS011;18974;50.838;4.636;2024-02-16T04:15:27;5.22;;;2.78;;
32535;SDS011;18974;50.838;4.636;2024-02-16T04:17:53;7.65;;;3.72;;
32535;SDS011;18974;50.838;4.636;2024-02-16T04:20:19;6.38;;;3.15;;
32535;SDS011;18974;50.838;4.636;2024-02-16T04:22:45;7.13;;;2.78;;
32535;SDS011;18974;50.838;4.636;2024-02-16T04:25:11;6.15;;;2.60;;
32535;SDS011;18974;50.838;4.636;2024-02-16T04:27:37;11.02;;;3.80;;
32535;SDS011;18974;50.838;4.636;2024-02-16T04:30:03;6.35;;;3.22;;
32535;SDS011;18974;50.838;4.636;2024-02-16T04:32:30;5.10;;;3.20;;
32535;SDS011;18974;50.838;4.636;2024-02-16T04:34:56;6.03;;;3.40;;
32535;SDS011;18974;50.838;4.636;2024-02-16T04:37:22;8.50;;;3.03;;
32535;SDS011;18974;50.838;4.636;2024-02-16T04:39:48;6.35;;;3.10;;
32535;SDS011;18974;50.838;4.636;2024-02-16T04:42:14;6.50;;;3.22;;
32535;SDS011;18974;50.838;4.636;2024-02-16T04:44:41;7.72;;;3.83;;
32535;SDS011;18974;50.838;4.636;2024-02-16T04:47:06;6.03;;;3.17;;
32535;SDS011;18974;50.838;4.636;2024-02-16T04:49:32;8.18;;;3.35;;
32535;SDS011;18974;50.838;4.636;2024-02-16T04:51:58;6.00;;;3.25;;
32535;SDS011;18974;50.838;4.636;2024-02-16T04:54:24;8.10;;;3.20;;
32535;SDS011;18974;50.838;4.636;2024-02-16T04:56:49;6.47;;;3.22;;
32535;SDS011;18974;50.838;4.636;2024-02-16T04:59:19;5.43;;;2.90;;
32535;SDS011;18974;50.838;4.636;2024-02-16T05:01:44;6.55;;;2.95;;
32535;SDS011;18974;50.838;4.636;2024-02-16T05:04:10;6.72;;;3.22;;
32535;SDS011;18974;50.838;4.636;2024-02-16T05:06:41;8.43;;;3.08;;
32535;SDS011;18974;50.838;4.636;2024-02-16T05:09:06;8.02;;;2.95;;
32535;SDS011;18974;50.838;4.636;2024-02-16T05:11:32;7.22;;;3.40;;
32535;SDS011;18974;50.838;4.636;2024-02-16T05:13:58;7.38;;;3.03;;
32535;SDS011;18974;50.838;4.636;2024-02-16T05:16:24;9.32;;;3.40;;
32535;SDS011;18974;50.838;4.636;2024-02-16T05:18:50;7.82;;;3.33;;
32535;SDS011;18974;50.838;4.636;2024-02-16T05:21:16;8.18;;;3.10;;
32535;SDS011;18974;50.838;4.636;2024-02-16T05:23:42;7.65;;;3.28;;
32535;SDS011;18974;50.838;4.636;2024-02-16T05:26:08;10.98;;;3.10;;
32535;SDS011;18974;50.838;4.636;2024-02-16T05:28:33;7.65;;;2.83;;
32535;SDS011;18974;50.838;4.636;2024-02-16T05:31:03;5.65;;;3.00;;
32535;SDS011;18974;50.838;4.636;2024-02-16T05:33:52;7.22;;;3.50;;
32535;SDS011;18974;50.838;4.636;2024-02-16T05:38:45;6.22;;;2.55;;
32535;SDS011;18974;50.838;4.636;2024-02-16T05:41:12;9.80;;;3.40;;
32535;SDS011;18974;50.838;4.636;2024-02-16T05:43:38;5.35;;;2.83;;
32535;SDS011;18974;50.838;4.636;2024-02-16T05:46:04;7.32;;;3.40;;
32535;SDS011;18974;50.838;4.636;2024-02-16T05:48:33;10.73;;;3.38;;
32535;SDS011;18974;50.838;4.636;2024-02-16T05:51:02;11.00;;;3.08;;
32535;SDS011;18974;50.838;4.636;2024-02-16T05:53:30;5.40;;;2.75;;
32535;SDS011;18974;50.838;4.636;2024-02-16T05:55:56;7.30;;;2.97;;
32535;SDS011;18974;50.838;4.636;2024-02-16T05:58:21;5.25;;;2.75;;
32535;SDS011;18974;50.838;4.636;2024-02-16T06:00:48;11.93;;;3.17;;
32535;SDS011;18974;50.838;4.636;2024-02-16T06:03:14;9.32;;;2.85;;
32535;SDS011;18974;50.838;4.636;2024-02-16T06:05:40;8.38;;;2.92;;
32535;SDS011;18974;50.838;4.636;2024-02-16T06:08:06;13.65;;;3.05;;
32535;SDS011;18974;50.838;4.636;2024-02-16T06:10:32;11.93;;;3.03;;
32535;SDS011;18974;50.838;4.636;2024-02-16T06:12:58;17.83;;;4.22;;
32535;SDS011;18974;50.838;4.636;2024-02-16T06:15:24;7.35;;;3.00;;
32535;SDS011;18974;50.838;4.636;2024-02-16T06:17:50;8.70;;;3.17;;
32535;SDS011;18974;50.838;4.636;2024-02-16T06:20:16;7.28;;;2.90;;
32535;SDS011;18974;50.838;4.636;2024-02-16T06:22:42;5.55;;;2.58;;
32535;SDS011;18974;50.838;4.636;2024-02-16T06:25:08;6.03;;;3.42;;
32535;SDS011;18974;50.838;4.636;2024-02-16T06:27:34;8.20;;;3.03;;
32535;SDS011;18974;50.838;4.636;2024-02-16T06:30:00;6.55;;;3.13;;
32535;SDS011;18974;50.838;4.636;2024-02-16T06:32:26;8.65;;;3.88;;
32535;SDS011;18974;50.838;4.636;2024-02-16T06:34:53;6.78;;;3.58;;
32535;SDS011;18974;50.838;4.636;2024-02-16T06:37:19;9.18;;;4.40;;
32535;SDS011;18974;50.838;4.636;2024-02-16T06:39:44;10.40;;;3.20;;
32535;SDS011;18974;50.838;4.636;2024-02-16T06:42:10;7.03;;;3.30;;
32535;SDS011;18974;50.838;4.636;2024-02-16T06:44:39;5.78;;;3.25;;
32535;SDS011;18974;50.838;4.636;2024-02-16T06:47:05;7.95;;;3.17;;
32535;SDS011;18974;50.838;4.636;2024-02-16T06:49:31;7.50;;;3.08;;
32535;SDS011;18974;50.838;4.636;2024-02-16T06:51:56;10.48;;;3.10;;
32535;SDS011;18974;50.838;4.636;2024-02-16T06:54:22;8.40;;;3.13;;
32535;SDS011;18974;50.838;4.636;2024-02-16T06:56:49;11.63;;;3.40;;
32535;SDS011;18974;50.838;4.636;2024-02-16T06:59:18;12.93;;;3.55;;
32535;SDS011;18974;50.838;4.636;2024-02-16T07:01:44;6.45;;;3.00;;
32535;SDS011;18974;50.838;4.636;2024-02-16T07:04:10;9.35;;;3.35;;
32535;SDS011;18974;50.838;4.636;2024-02-16T07:06:35;7.22;;;3.40;;
32535;SDS011;18974;50.838;4.636;2024-02-16T07:09:01;6.75;;;3.17;;
32535;SDS011;18974;50.838;4.636;2024-02-16T07:11:27;8.50;;;3.05;;
32535;SDS011;18974;50.838;4.636;2024-02-16T07:13:53;11.77;;;3.25;;
32535;SDS011;18974;50.838;4.636;2024-02-16T07:16:19;6.72;;;3.13;;
32535;SDS011;18974;50.838;4.636;2024-02-16T07:18:45;6.55;;;2.90;;
32535;SDS011;18974;50.838;4.636;2024-02-16T07:21:11;9.43;;;3.33;;
32535;SDS011;18974;50.838;4.636;2024-02-16T07:23:37;8.90;;;3.50;;
32535;SDS011;18974;50.838;4.636;2024-02-16T07:26:03;11.77;;;3.55;;
32535;SDS011;18974;50.838;4.636;2024-02-16T07:28:29;11.57;;;3.58;;
32535;SDS011;18974;50.838;4.636;2024-02-16T07:30:55;8.15;;;3.88;;
32535;SDS011;18974;50.838;4.636;2024-02-16T07:33:20;10.82;;;3.60;;
32535;SDS011;18974;50.838;4.636;2024-02-16T07:35:46;9.85;;;3.30;;
32535;SDS011;18974;50.838;4.636;2024-02-16T07:38:12;8.00;;;3.22;;
32535;SDS011;18974;50.838;4.636;2024-02-16T07:40:38;10.43;;;3.75;;
32535;SDS011;18974;50.838;4.636;2024-02-16T07:43:04;8.25;;;3.55;;
32535;SDS011;18974;50.838;4.636;2024-02-16T07:45:30;8.93;;;3.85;;
32535;SDS011;18974;50.838;4.636;2024-02-16T07:47:56;8.88;;;3.20;;
32535;SDS011;18974;50.838;4.636;2024-02-16T07:50:22;13.52;;;3.65;;
32535;SDS011;18974;50.838;4.636;2024-02-16T07:52:48;9.98;;;3.90;;
32535;SDS011;18974;50.838;4.636;2024-02-16T07:55:14;13.52;;;3.65;;
32535;SDS011;18974;50.838;4.636;2024-02-16T07:57:43;10.60;;;3.33;;
32535;SDS011;18974;50.838;4.636;2024-02-16T08:00:09;14.52;;;4.10;;
32535;SDS011;18974;50.838;4.636;2024-02-16T08:02:36;11.02;;;3.88;;
32535;SDS011;18974;50.838;4.636;2024-02-16T08:05:02;21.30;;;3.33;;
32535;SDS011;18974;50.838;4.636;2024-02-16T08:07:28;9.57;;;3.42;;
32535;SDS011;18974;50.838;4.636;2024-02-16T08:09:53;10.20;;;3.92;;
32535;SDS011;18974;50.838;4.636;2024-02-16T08:12:19;9.70;;;4.32;;
32535;SDS011;18974;50.838;4.636;2024-02-16T08:14:46;11.30;;;4.75;;
32535;SDS011;18974;50.838;4.636;2024-02-16T08:17:11;11.20;;;4.22;;
32535;SDS011;18974;50.838;4.636;2024-02-16T08:19:38;9.07;;;4.13;;
32535;SDS011;18974;50.838;4.636;2024-02-16T08:22:04;12.48;;;4.30;;
32535;SDS011;18974;50.838;4.636;2024-02-16T08:24:32;10.70;;;5.18;;
32535;SDS011;18974;50.838;4.636;2024-02-16T08:27:01;11.63;;;5.15;;
32535;SDS011;18974;50.838;4.636;2024-02-16T08:29:27;8.25;;;3.92;;
32535;SDS011;18974;50.838;4.636;2024-02-16T08:31:54;12.25;;;4.82;;
32535;SDS011;18974;50.838;4.636;2024-02-16T08:34:20;9.68;;;4.90;;
32535;SDS011;18974;50.838;4.636;2024-02-16T08:36:46;8.73;;;4.57;;
32535;SDS011;18974;50.838;4.636;2024-02-16T08:39:13;14.80;;;5.15;;
32535;SDS011;18974;50.838;4.636;2024-02-16T08:41:39;11.00;;;4.90;;
32535;SDS011;18974;50.838;4.636;2024-02-16T08:44:06;12.32;;;5.03;;
32535;SDS011;18974;50.838;4.636;2024-02-16T08:46:34;10.65;;;4.97;;
32535;SDS011;18974;50.838;4.636;2024-02-16T08:49:01;11.02;;;4.82;;
32535;SDS011;18974;50.838;4.636;2024-02-16T08:51:26;12.80;;;6.00;;
32535;SDS011;18974;50.838;4.636;2024-02-16T08:53:52;15.48;;;5.82;;
32535;SDS011;18974;50.838;4.636;2024-02-16T08:56:18;13.60;;;5.32;;
32535;SDS011;18974;50.838;4.636;2024-02-16T08:58:43;11.25;;;5.43;;
32535;SDS011;18974;50.838;4.636;2024-02-16T09:01:09;20.60;;;4.90;;
32535;SDS011;18974;50.838;4.636;2024-02-16T09:03:35;10.60;;;4.90;;
32535;SDS011;18974;50.838;4.636;2024-02-16T09:06:03;12.15;;;5.10;;
32535;SDS011;18974;50.838;4.636;2024-02-16T09:08:29;8.73;;;4.63;;
32535;SDS011;18974;50.838;4.636;2024-02-16T09:11:03;12.75;;;5.05;;
32535;SDS011;18974;50.838;4.636;2024-02-16T09:13:36;10.10;;;4.60;;
32535;SDS011;18974;50.838;4.636;2024-02-16T09:16:04;13.77;;;4.82;;
32535;SDS011;18974;50.838;4.636;2024-02-16T09:18:30;12.48;;;5.57;;
32535;SDS011;18974;50.838;4.636;2024-02-16T09:20:56;10.52;;;4.55;;
32535;SDS011;18974;50.838;4.636;2024-02-16T09:23:21;12.85;;;5.03;;
32535;SDS011;18974;50.838;4.636;2024-02-16T09:25:47;12.40;;;4.88;;
32535;SDS011;18974;50.838;4.636;2024-02-16T09:28:14;13.20;;;4.80;;
32535;SDS011;18974;50.838;4.636;2024-02-16T09:30:40;13.15;;;4.90;;
32535;SDS011;18974;50.838;4.636;2024-02-16T09:33:05;16.08;;;5.15;;
32535;SDS011;18974;50.838;4.636;2024-02-16T09:35:32;14.57;;;5.13;;
32535;SDS011;18974;50.838;4.636;2024-02-16T09:37:58;16.20;;;4.65;;
32535;SDS011;18974;50.838;4.636;2024-02-16T09:40:24;10.90;;;4.32;;
32535;SDS011;18974;50.838;4.636;2024-02-16T09:42:50;10.65;;;4.38;;
32535;SDS011;18974;50.838;4.636;2024-02-16T09:45:16;10.45;;;4.97;;
32535;SDS011;18974;50.838;4.636;2024-02-16T09:47:45;8.93;;;4.82;;
32535;SDS011;18974;50.838;4.636;2024-02-16T09:50:14;13.77;;;4.88;;
32535;SDS011;18974;50.838;4.636;2024-02-16T09:52:41;19.98;;;5.03;;
32535;SDS011;18974;50.838;4.636;2024-02-16T09:55:12;14.20;;;4.82;;
32535;SDS011;18974;50.838;4.636;2024-02-16T09:57:38;13.98;;;5.07;;
32535;SDS011;18974;50.838;4.636;2024-02-16T10:00:04;13.70;;;5.35;;
32535;SDS011;18974;50.838;4.636;2024-02-16T10:02:42;9.80;;;5.30;;
32535;SDS011;18974;50.838;4.636;2024-02-16T10:05:11;14.57;;;5.72;;
32535;SDS011;18974;50.838;4.636;2024-02-16T10:07:40;12.35;;;5.20;;
32535;SDS011;18974;50.838;4.636;2024-02-16T10:10:21;12.82;;;5.45;;
32535;SDS011;18974;50.838;4.636;2024-02-16T10:12:48;12.50;;;5.50;;
32535;SDS011;18974;50.838;4.636;2024-02-16T10:15:20;17.70;;;6.57;;
32535;SDS011;18974;50.838;4.636;2024-02-16T10:17:59;15.63;;;5.97;;
32535;SDS011;18974;50.838;4.636;2024-02-16T10:20:25;12.88;;;5.65;;
32535;SDS011;18974;50.838;4.636;2024-02-16T10:25:37;15.50;;;6.53;;
32535;SDS011;18974;50.838;4.636;2024-02-16T10:28:05;13.63;;;6.05;;
32535;SDS011;18974;50.838;4.636;2024-02-16T10:30:38;20.35;;;6.22;;
32535;SDS011;18974;50.838;4.636;2024-02-16T10:33:08;15.25;;;6.57;;
32535;SDS011;18974;50.838;4.636;2024-02-16T10:35:35;15.95;;;6.07;;
32535;SDS011;18974;50.838;4.636;2024-02-16T10:38:02;16.83;;;6.45;;
32535;SDS011;18974;50.838;4.636;2024-02-16T10:40:38;18.88;;;6.22;;
32535;SDS011;18974;50.838;4.636;2024-02-16T10:43:05;18.58;;;6.53;;
32535;SDS011;18974;50.838;4.636;2024-02-16T10:45:33;19.05;;;7.07;;
32535;SDS011;18974;50.838;4.636;2024-02-16T10:48:03;16.90;;;6.95;;
32535;SDS011;18974;50.838;4.636;2024-02-16T10:50:30;18.08;;;7.00;;
32535;SDS011;18974;50.838;4.636;2024-02-16T10:53:03;24.30;;;7.65;;
32535;SDS011;18974;50.838;4.636;2024-02-16T10:55:38;20.02;;;7.40;;
32535;SDS011;18974;50.838;4.636;2024-02-16T10:58:06;17.65;;;7.40;;
32535;SDS011;18974;50.838;4.636;2024-02-16T11:00:33;16.33;;;7.05;;
32535;SDS011;18974;50.838;4.636;2024-02-16T11:03:01;21.83;;;7.35;;
32535;SDS011;18974;50.838;4.636;2024-02-16T11:06:01;19.20;;;7.95;;
32535;SDS011;18974;50.838;4.636;2024-02-16T11:08:25;19.70;;;7.20;;
32535;SDS011;18974;50.838;4.636;2024-02-16T11:13:24;18.00;;;8.07;;
32535;SDS011;18974;50.838;4.636;2024-02-16T11:16:03;20.75;;;7.50;;
32535;SDS011;18974;50.838;4.636;2024-02-16T11:18:36;17.42;;;7.15;;
32535;SDS011;18974;50.838;4.636;2024-02-16T11:21:03;20.90;;;7.70;;
32535;SDS011;18974;50.838;4.636;2024-02-16T11:23:29;17.38;;;7.68;;
32535;SDS011;18974;50.838;4.636;2024-02-16T11:26:05;22.38;;;7.32;;
32535;SDS011;18974;50.838;4.636;2024-02-16T11:28:36;21.63;;;8.00;;
32535;SDS011;18974;50.838;4.636;2024-02-16T11:31:02;19.80;;;6.85;;
32535;SDS011;18974;50.838;4.636;2024-02-16T11:33:29;20.35;;;7.05;;
32535;SDS011;18974;50.838;4.636;2024-02-16T11:36:02;16.20;;;7.13;;
32535;SDS011;18974;50.838;4.636;2024-02-16T11:38:30;16.65;;;7.75;;
32535;SDS011;18974;50.838;4.636;2024-02-16T11:40:58;21.25;;;7.32;;
32535;SDS011;18974;50.838;4.636;2024-02-16T11:43:26;17.70;;;8.25;;
32535;SDS011;18974;50.838;4.636;2024-02-16T11:45:51;19.85;;;8.95;;
32535;SDS011;18974;50.838;4.636;2024-02-16T11:48:27;16.77;;;8.05;;
32535;SDS011;18974;50.838;4.636;2024-02-16T11:51:03;19.85;;;9.05;;
32535;SDS011;18974;50.838;4.636;2024-02-16T11:55:54;23.95;;;8.70;;
32535;SDS011;18974;50.838;4.636;2024-02-16T11:58:20;20.48;;;9.45;;
32535;SDS011;18974;50.838;4.636;2024-02-16T12:00:47;18.15;;;9.40;;
32535;SDS011;18974;50.838;4.636;2024-02-16T12:03:23;21.77;;;9.93;;
32535;SDS011;18974;50.838;4.636;2024-02-16T12:05:53;23.27;;;9.98;;
32535;SDS011;18974;50.838;4.636;2024-02-16T12:08:21;23.00;;;11.10;;
32535;SDS011;18974;50.838;4.636;2024-02-16T12:10:48;23.23;;;10.60;;
32535;SDS011;18974;50.838;4.636;2024-02-16T12:13:18;21.90;;;11.02;;
32535;SDS011;18974;50.838;4.636;2024-02-16T12:15:47;19.95;;;10.73;;
32535;SDS011;18974;50.838;4.636;2024-02-16T12:18:26;25.42;;;11.35;;
32535;SDS011;18974;50.838;4.636;2024-02-16T12:21:02;16.05;;;10.43;;
32535;SDS011;18974;50.838;4.636;2024-02-16T12:23:30;26.45;;;10.38;;
32535;SDS011;18974;50.838;4.636;2024-02-16T12:25:57;18.80;;;10.15;;
32535;SDS011;18974;50.838;4.636;2024-02-16T12:28:25;22.92;;;10.77;;
32535;SDS011;18974;50.838;4.636;2024-02-16T12:30:53;14.25;;;7.88;;
32535;SDS011;18974;50.838;4.636;2024-02-16T12:33:20;13.45;;;8.00;;
32535;SDS011;18974;50.838;4.636;2024-02-16T12:35:49;17.02;;;7.72;;
32535;SDS011;18974;50.838;4.636;2024-02-16T12:38:15;11.63;;;7.10;;
32535;SDS011;18974;50.838;4.636;2024-02-16T12:40:44;10.35;;;5.53;;
32535;SDS011;18974;50.838;4.636;2024-02-16T12:43:13;11.63;;;5.57;;
32535;SDS011;18974;50.838;4.636;2024-02-16T12:45:39;11.93;;;5.85;;
32535;SDS011;18974;50.838;4.636;2024-02-16T12:48:06;9.98;;;4.78;;
32535;SDS011;18974;50.838;4.636;2024-02-16T12:50:32;9.80;;;4.28;;
32535;SDS011;18974;50.838;4.636;2024-02-16T12:52:58;8.05;;;4.60;;
32535;SDS011;18974;50.838;4.636;2024-02-16T12:55:27;9.23;;;4.53;;
32535;SDS011;18974;50.838;4.636;2024-02-16T12:57:53;8.18;;;4.50;;
32535;SDS011;18974;50.838;4.636;2024-02-16T13:00:18;8.25;;;4.43;;
32535;SDS011;18974;50.838;4.636;2024-02-16T13:02:44;5.57;;;4.50;;
32535;SDS011;18974;50.838;4.636;2024-02-16T13:05:10;7.32;;;5.07;;
32535;SDS011;18974;50.838;4.636;2024-02-16T13:07:36;9.80;;;5.10;;
32535;SDS011;18974;50.838;4.636;2024-02-16T13:10:05;6.72;;;5.38;;
32535;SDS011;18974;50.838;4.636;2024-02-16T13:12:31;7.82;;;5.90;;
32535;SDS011;18974;50.838;4.636;2024-02-16T13:14:56;11.25;;;5.93;;
32535;SDS011;18974;50.838;4.636;2024-02-16T13:17:22;6.93;;;5.80;;
32535;SDS011;18974;50.838;4.636;2024-02-16T13:19:48;6.95;;;5.50;;
32535;SDS011;18974;50.838;4.636;2024-02-16T13:22:14;15.02;;;6.07;;
32535;SDS011;18974;50.838;4.636;2024-02-16T13:24:40;8.25;;;6.57;;
32535;SDS011;18974;50.838;4.636;2024-02-16T13:27:06;10.10;;;6.88;;
32535;SDS011;18974;50.838;4.636;2024-02-16T13:29:32;8.80;;;6.57;;
32535;SDS011;18974;50.838;4.636;2024-02-16T13:31:59;8.50;;;7.20;;
32535;SDS011;18974;50.838;4.636;2024-02-16T13:34:25;7.95;;;7.13;;
32535;SDS011;18974;50.838;4.636;2024-02-16T13:36:52;12.15;;;7.70;;
32535;SDS011;18974;50.838;4.636;2024-02-16T13:39:18;9.07;;;7.50;;
32535;SDS011;18974;50.838;4.636;2024-02-16T13:41:44;8.50;;;7.60;;
32535;SDS011;18974;50.838;4.636;2024-02-16T13:44:13;8.93;;;7.97;;
32535;SDS011;18974;50.838;4.636;2024-02-16T13:46:39;9.75;;;8.07;;
32535;SDS011;18974;50.838;4.636;2024-02-16T13:49:04;10.63;;;7.93;;
32535;SDS011;18974;50.838;4.636;2024-02-16T13:51:30;11.80;;;8.43;;
32535;SDS011;18974;50.838;4.636;2024-02-16T13:53:56;9.55;;;7.85;;
32535;SDS011;18974;50.838;4.636;2024-02-16T13:56:21;9.15;;;8.07;;
32535;SDS011;18974;50.838;4.636;2024-02-16T13:58:47;11.25;;;8.05;;
32535;SDS011;18974;50.838;4.636;2024-02-16T14:01:13;10.13;;;8.18;;
32535;SDS011;18974;50.838;4.636;2024-02-16T14:03:39;12.13;;;8.35;;
32535;SDS011;18974;50.838;4.636;2024-02-16T14:06:06;10.48;;;8.52;;
32535;SDS011;18974;50.838;4.636;2024-02-16T14:08:33;11.82;;;9.50;;
32535;SDS011;18974;50.838;4.636;2024-02-16T14:10:59;11.93;;;10.18;;
32535;SDS011;18974;50.838;4.636;2024-02-16T14:13:25;13.60;;;11.00;;
32535;SDS011;18974;50.838;4.636;2024-02-16T14:15:50;12.40;;;11.10;;
32535;SDS011;18974;50.838;4.636;2024-02-16T14:18:16;12.52;;;11.00;;
32535;SDS011;18974;50.838;4.636;2024-02-16T14:20:42;15.15;;;12.10;;
32535;SDS011;18974;50.838;4.636;2024-02-16T14:23:07;14.02;;;12.63;;
32535;SDS011;18974;50.838;4.636;2024-02-16T14:25:34;16.45;;;12.88;;
32535;SDS011;18974;50.838;4.636;2024-02-16T14:28:02;14.85;;;13.35;;
32535;SDS011;18974;50.838;4.636;2024-02-16T14:30:28;15.48;;;13.85;;
32535;SDS011;18974;50.838;4.636;2024-02-16T14:32:54;15.35;;;13.65;;
32535;SDS011;18974;50.838;4.636;2024-02-16T14:35:20;15.80;;;14.30;;
32535;SDS011;18974;50.838;4.636;2024-02-16T14:37:47;16.85;;;14.90;;
32535;SDS011;18974;50.838;4.636;2024-02-16T14:40:14;18.95;;;16.83;;
32535;SDS011;18974;50.838;4.636;2024-02-16T14:42:40;23.08;;;19.45;;
32535;SDS011;18974;50.838;4.636;2024-02-16T14:45:07;25.33;;;21.13;;
32535;SDS011;18974;50.838;4.636;2024-02-16T14:47:35;24.20;;;21.80;;
32535;SDS011;18974;50.838;4.636;2024-02-16T14:50:02;26.13;;;22.33;;